No particular awareness of the weather is required.    There are no Weather-warnings


Meteo18 Weather Cam more information Meteo18 Weather Cam


Thunder radar more information blitzortung!


Rain radar more information rain snow radar


Visit our other weather sites:

Template documentation
and downloads

And another site



Weather Underground History page Text

Daily Summary for May 19, 2017 Units:  Both    English   Metric
« Previous Day
Next Day »
Daily Weekly Monthly Yearly Custom
  High: Low: Average:
Temperature: TemperatureC °F /  -17.8 °C 8.1 °F /  -13.3 °C 10.4 °F /  -12 °C
Dew Point: DewpointC °F /  -17.8 °C 6.4 °F /  -14.2 °C 8 °F /  -13.3 °C
Humidity: Humidity % 62 % 85 %
Wind Speed: WindSpeedKMH mph /  0 km/h - 6.3 mph /  10.1 km/h
Wind Gust: WindSpeedGustKMH mph /  0 km/h - -
Wind:- - WSW
Pressure: PressurehPa in /  0 hPa 1015.1 in /  34371.3 hPa -
Precipitation: 8.9 in /  226.06 mm    
Historical Graphs
 
 
Tabular Data for May 19, 2017
Time Temperature Dew Point Pressure Wind Wind Speed Wind Gust Humidity Rainfall Rate (Hourly)
TemperatureC °F /  -17.8 °C DewpointC °F /  -17.8 °C PressurehPa in /  0 hPa Calm     Humidity % HourlyPrecipMM in /  0 mm
00:02 10.4 °F /  -12 °C 9.5 °F /  -12.5 °C 1015.1 in /  34371.3 hPa WSW 9.7 mph /  15.6 km/h 24.1 mph /  38.8 km/h 94 % 0.8 in /  20.32 mm
00:07 10.4 °F /  -12 °C 9.5 °F /  -12.5 °C 1015.5 in /  34384.8 hPa SW 8.0 mph /  12.9 km/h 22.5 mph /  36.2 km/h 94 % 1.0 in /  25.4 mm
00:12 10.4 °F /  -12 °C 9.5 °F /  -12.5 °C 1015.5 in /  34384.8 hPa WSW 8.0 mph /  12.9 km/h 22.5 mph /  36.2 km/h 94 % 0.8 in /  20.32 mm
00:17 10.4 °F /  -12 °C 9.5 °F /  -12.5 °C 1015.5 in /  34384.8 hPa SW 12.9 mph /  20.8 km/h 22.5 mph /  36.2 km/h 94 % 0.8 in /  20.32 mm
00:22 10.4 °F /  -12 °C 9.5 °F /  -12.5 °C 1015.5 in /  34384.8 hPa SW 9.7 mph /  15.6 km/h 22.5 mph /  36.2 km/h 94 % 0.8 in /  20.32 mm
00:27 10.3 °F /  -12.1 °C 9.4 °F /  -12.6 °C 1015.5 in /  34384.8 hPa WSW 14.5 mph /  23.3 km/h 20.9 mph /  33.6 km/h 94 % 0.8 in /  20.32 mm
00:32 10.3 °F /  -12.1 °C 9.4 °F /  -12.6 °C 1015.5 in /  34384.8 hPa SW 11.3 mph /  18.2 km/h 20.9 mph /  33.6 km/h 94 % 0.8 in /  20.32 mm
00:42 10.3 °F /  -12.1 °C 9.4 °F /  -12.6 °C 1015.5 in /  34384.8 hPa SW 9.7 mph /  15.6 km/h 22.5 mph /  36.2 km/h 94 % 0.5 in /  12.7 mm
00:47 10.3 °F /  -12.1 °C 9.4 °F /  -12.6 °C 1015.5 in /  34384.8 hPa SW 11.3 mph /  18.2 km/h 22.5 mph /  36.2 km/h 94 % 0.8 in /  20.32 mm
00:52 10.3 °F /  -12.1 °C 9.5 °F /  -12.5 °C 1015.5 in /  34384.8 hPa SW 14.5 mph /  23.3 km/h 20.9 mph /  33.6 km/h 95 % 0.8 in /  20.32 mm
00:57 10.2 °F /  -12.1 °C 9.4 °F /  -12.6 °C 1015.5 in /  34384.8 hPa West 3.2 mph /  5.1 km/h 25.7 mph /  41.4 km/h 95 % 0.8 in /  20.32 mm
01:02 10.2 °F /  -12.1 °C 9.4 °F /  -12.6 °C 1015.5 in /  34384.8 hPa SSW 11.3 mph /  18.2 km/h 25.7 mph /  41.4 km/h 95 % 0.8 in /  20.32 mm
01:07 10.2 °F /  -12.1 °C 9.3 °F /  -12.6 °C 1015.5 in /  34384.8 hPa SW 11.3 mph /  18.2 km/h 25.7 mph /  41.4 km/h 94 % 0.5 in /  12.7 mm
01:12 10.2 °F /  -12.1 °C 9.3 °F /  -12.6 °C 1015.1 in /  34371.3 hPa WSW 11.3 mph /  18.2 km/h 19.3 mph /  31.1 km/h 94 % 0.8 in /  20.32 mm
01:17 10.1 °F /  -12.2 °C 9.2 °F /  -12.7 °C 1015.5 in /  34384.8 hPa WSW 6.4 mph /  10.3 km/h 19.3 mph /  31.1 km/h 94 % 0.8 in /  20.32 mm
01:22 10.1 °F /  -12.2 °C 9.2 °F /  -12.7 °C 1015.5 in /  34384.8 hPa WSW 11.3 mph /  18.2 km/h 19.3 mph /  31.1 km/h 94 % 0.8 in /  20.32 mm
01:27 10.1 °F /  -12.2 °C 9.2 °F /  -12.7 °C 1015.5 in /  34384.8 hPa West 8.0 mph /  12.9 km/h 19.3 mph /  31.1 km/h 94 % 0.8 in /  20.32 mm
01:32 10.1 °F /  -12.2 °C 9.2 °F /  -12.7 °C 1015.5 in /  34384.8 hPa SW 12.9 mph /  20.8 km/h 19.3 mph /  31.1 km/h 94 % 1.0 in /  25.4 mm
01:37 10.0 °F /  -12.2 °C 8.9 °F /  -12.8 °C 1015.5 in /  34384.8 hPa West 6.4 mph /  10.3 km/h 19.3 mph /  31.1 km/h 93 % 0.8 in /  20.32 mm
01:42 9.9 °F /  -12.3 °C 8.8 °F /  -12.9 °C 1015.5 in /  34384.8 hPa West 9.7 mph /  15.6 km/h 19.3 mph /  31.1 km/h 93 % 0.8 in /  20.32 mm
01:47 9.8 °F /  -12.3 °C 8.6 °F /  -13 °C 1015.5 in /  34384.8 hPa West 6.4 mph /  10.3 km/h 16.1 mph /  25.9 km/h 92 % 0.5 in /  12.7 mm
01:52 9.7 °F /  -12.4 °C 8.5 °F /  -13.1 °C 1015.5 in /  34384.8 hPa WSW 12.9 mph /  20.8 km/h 14.5 mph /  23.3 km/h 92 % 0.5 in /  12.7 mm
01:57 9.6 °F /  -12.4 °C 8.2 °F /  -13.2 °C 1015.5 in /  34384.8 hPa West 11.3 mph /  18.2 km/h 16.1 mph /  25.9 km/h 91 % 0.5 in /  12.7 mm
02:02 9.5 °F /  -12.5 °C 8.1 °F /  -13.3 °C 1015.5 in /  34384.8 hPa WNW 4.8 mph /  7.7 km/h 16.1 mph /  25.9 km/h 91 % 0.5 in /  12.7 mm
02:07 9.3 °F /  -12.6 °C 7.9 °F /  -13.4 °C 1015.5 in /  34384.8 hPa West 11.3 mph /  18.2 km/h 16.1 mph /  25.9 km/h 91 % 0.3 in /  7.62 mm
02:12 9.2 °F /  -12.7 °C 7.8 °F /  -13.4 °C 1015.5 in /  34384.8 hPa West 8.0 mph /  12.9 km/h 16.1 mph /  25.9 km/h 91 % 0.3 in /  7.62 mm
02:17 9.1 °F /  -12.7 °C 7.7 °F /  -13.5 °C 1015.5 in /  34384.8 hPa SW 4.8 mph /  7.7 km/h 16.1 mph /  25.9 km/h 91 % 0.3 in /  7.62 mm
02:22 8.9 °F /  -12.8 °C 7.5 °F /  -13.6 °C 1015.5 in /  34384.8 hPa West 3.2 mph /  5.1 km/h 16.1 mph /  25.9 km/h 91 % 0.3 in /  7.62 mm
02:27 8.9 °F /  -12.8 °C 7.7 °F /  -13.5 °C 1015.5 in /  34384.8 hPa West 6.4 mph /  10.3 km/h 17.7 mph /  28.5 km/h 92 % 0.3 in /  7.62 mm
02:32 8.9 °F /  -12.8 °C 7.7 °F /  -13.5 °C 1015.5 in /  34384.8 hPa WNW 3.2 mph /  5.1 km/h 17.7 mph /  28.5 km/h 92 % 0.0 in /  0 mm
02:39 8.8 °F /  -12.9 °C 7.6 °F /  -13.6 °C 1015.5 in /  34384.8 hPa NW 8.0 mph /  12.9 km/h 17.7 mph /  28.5 km/h 92 % 0.0 in /  0 mm
02:47 8.8 °F /  -12.9 °C 7.6 °F /  -13.6 °C 1015.5 in /  34384.8 hPa NW 4.8 mph /  7.7 km/h 17.7 mph /  28.5 km/h 92 % 0.0 in /  0 mm
02:52 8.7 °F /  -12.9 °C 7.5 °F /  -13.6 °C 1015.5 in /  34384.8 hPa WNW 4.8 mph /  7.7 km/h 17.7 mph /  28.5 km/h 92 % 0.0 in /  0 mm
03:02 8.7 °F /  -12.9 °C 7.3 °F /  -13.7 °C 1015.5 in /  34384.8 hPa WNW 3.2 mph /  5.1 km/h 12.9 mph /  20.8 km/h 91 % 0.0 in /  0 mm
03:07 8.7 °F /  -12.9 °C 7.3 °F /  -13.7 °C 1015.5 in /  34384.8 hPa West 1.6 mph /  2.6 km/h 11.3 mph /  18.2 km/h 91 % 0.0 in /  0 mm
03:12 8.7 °F /  -12.9 °C 7.5 °F /  -13.6 °C 1015.5 in /  34384.8 hPa WNW 3.2 mph /  5.1 km/h 11.3 mph /  18.2 km/h 92 % 0.0 in /  0 mm
03:17 8.7 °F /  -12.9 °C 7.5 °F /  -13.6 °C 1015.5 in /  34384.8 hPa Calm   9.7 mph /  15.6 km/h 92 % 0.0 in /  0 mm
03:22 8.7 °F /  -12.9 °C 7.5 °F /  -13.6 °C 1015.5 in /  34384.8 hPa Calm   9.7 mph /  15.6 km/h 92 % 0.0 in /  0 mm
03:27 8.7 °F /  -12.9 °C 7.5 °F /  -13.6 °C 1015.5 in /  34384.8 hPa West 1.6 mph /  2.6 km/h 6.4 mph /  10.3 km/h 92 % 0.0 in /  0 mm
03:32 8.7 °F /  -12.9 °C 7.6 °F /  -13.6 °C 1015.5 in /  34384.8 hPa West 4.8 mph /  7.7 km/h 6.4 mph /  10.3 km/h 93 % 0.0 in /  0 mm
03:37 8.7 °F /  -12.9 °C 7.6 °F /  -13.6 °C 1015.5 in /  34384.8 hPa West 3.2 mph /  5.1 km/h 8.0 mph /  12.9 km/h 93 % 0.0 in /  0 mm
03:42 8.8 °F /  -12.9 °C 7.7 °F /  -13.5 °C 1015.5 in /  34384.8 hPa WSW 3.2 mph /  5.1 km/h 8.0 mph /  12.9 km/h 93 % 0.0 in /  0 mm
03:47 8.8 °F /  -12.9 °C 7.9 °F /  -13.4 °C 1015.5 in /  34384.8 hPa West 1.6 mph /  2.6 km/h 9.7 mph /  15.6 km/h 94 % 0.0 in /  0 mm
03:52 8.8 °F /  -12.9 °C 7.9 °F /  -13.4 °C 1015.5 in /  34384.8 hPa SW 3.2 mph /  5.1 km/h 9.7 mph /  15.6 km/h 94 % 0.0 in /  0 mm
03:57 8.8 °F /  -12.9 °C 7.9 °F /  -13.4 °C 1015.5 in /  34384.8 hPa WSW 4.8 mph /  7.7 km/h 9.7 mph /  15.6 km/h 94 % 0.0 in /  0 mm
04:02 8.8 °F /  -12.9 °C 7.9 °F /  -13.4 °C 1015.5 in /  34384.8 hPa West 3.2 mph /  5.1 km/h 9.7 mph /  15.6 km/h 94 % 0.0 in /  0 mm
04:12 8.8 °F /  -12.9 °C 7.9 °F /  -13.4 °C 1015.5 in /  34384.8 hPa SW 3.2 mph /  5.1 km/h 8.0 mph /  12.9 km/h 94 % 0.0 in /  0 mm
04:17 8.8 °F /  -12.9 °C 7.9 °F /  -13.4 °C 1015.5 in /  34384.8 hPa WSW 3.2 mph /  5.1 km/h 8.0 mph /  12.9 km/h 94 % 0.0 in /  0 mm
04:27 8.9 °F /  -12.8 °C 8.0 °F /  -13.3 °C 1015.5 in /  34384.8 hPa WSW 4.8 mph /  7.7 km/h 8.0 mph /  12.9 km/h 94 % 0.0 in /  0 mm
04:32 8.9 °F /  -12.8 °C 8.0 °F /  -13.3 °C 1015.5 in /  34384.8 hPa WSW 3.2 mph /  5.1 km/h 8.0 mph /  12.9 km/h 94 % 0.0 in /  0 mm
04:42 8.9 °F /  -12.8 °C 8.0 °F /  -13.3 °C 1015.5 in /  34384.8 hPa SW 3.2 mph /  5.1 km/h 8.0 mph /  12.9 km/h 94 % 0.0 in /  0 mm
04:47 8.9 °F /  -12.8 °C 8.0 °F /  -13.3 °C 1015.5 in /  34384.8 hPa WSW 1.6 mph /  2.6 km/h 8.0 mph /  12.9 km/h 94 % 0.0 in /  0 mm
04:52 8.9 °F /  -12.8 °C 8.0 °F /  -13.3 °C 1015.5 in /  34384.8 hPa SW 3.2 mph /  5.1 km/h 8.0 mph /  12.9 km/h 94 % 0.0 in /  0 mm
05:02 9.1 °F /  -12.7 °C 8.2 °F /  -13.2 °C 1015.5 in /  34384.8 hPa SW 1.6 mph /  2.6 km/h 6.4 mph /  10.3 km/h 94 % 0.0 in /  0 mm
05:12 9.1 °F /  -12.7 °C 8.2 °F /  -13.2 °C 1015.5 in /  34384.8 hPa WSW 1.6 mph /  2.6 km/h 6.4 mph /  10.3 km/h 94 % 0.0 in /  0 mm
05:17 9.2 °F /  -12.7 °C 8.3 °F /  -13.2 °C 1015.5 in /  34384.8 hPa WSW 1.6 mph /  2.6 km/h 6.4 mph /  10.3 km/h 94 % 0.0 in /  0 mm
05:22 9.2 °F /  -12.7 °C 8.3 °F /  -13.2 °C 1015.5 in /  34384.8 hPa WSW 4.8 mph /  7.7 km/h 6.4 mph /  10.3 km/h 94 % 0.0 in /  0 mm
05:32 9.2 °F /  -12.7 °C 8.3 °F /  -13.2 °C 1015.5 in /  34384.8 hPa Calm   8.0 mph /  12.9 km/h 94 % 0.0 in /  0 mm
05:42 9.3 °F /  -12.6 °C 8.4 °F /  -13.1 °C 1015.5 in /  34384.8 hPa WSW 3.2 mph /  5.1 km/h 8.0 mph /  12.9 km/h 94 % 0.0 in /  0 mm
05:52 9.3 °F /  -12.6 °C 8.4 °F /  -13.1 °C 1015.5 in /  34384.8 hPa WSW 4.8 mph /  7.7 km/h 6.4 mph /  10.3 km/h 94 % 0.0 in /  0 mm
05:57 9.3 °F /  -12.6 °C 8.4 °F /  -13.1 °C 1015.5 in /  34384.8 hPa SW 3.2 mph /  5.1 km/h 9.7 mph /  15.6 km/h 94 % 0.0 in /  0 mm
06:02 9.3 °F /  -12.6 °C 8.4 °F /  -13.1 °C 1015.5 in /  34384.8 hPa SSW 3.2 mph /  5.1 km/h 9.7 mph /  15.6 km/h 94 % 0.0 in /  0 mm
06:12 9.3 °F /  -12.6 °C 8.4 °F /  -13.1 °C 1015.5 in /  34384.8 hPa SW 1.6 mph /  2.6 km/h 9.7 mph /  15.6 km/h 94 % 0.0 in /  0 mm
06:17 9.3 °F /  -12.6 °C 8.4 °F /  -13.1 °C 1015.5 in /  34384.8 hPa WSW 1.6 mph /  2.6 km/h 8.0 mph /  12.9 km/h 94 % 0.0 in /  0 mm
06:27 9.4 °F /  -12.6 °C 8.5 °F /  -13.1 °C 1015.5 in /  34384.8 hPa Calm   8.0 mph /  12.9 km/h 94 % 0.0 in /  0 mm
06:32 9.4 °F /  -12.6 °C 8.5 °F /  -13.1 °C 1015.5 in /  34384.8 hPa West 1.6 mph /  2.6 km/h 8.0 mph /  12.9 km/h 94 % 0.0 in /  0 mm
06:42 9.4 °F /  -12.6 °C 8.5 °F /  -13.1 °C 1015.5 in /  34384.8 hPa WSW 3.2 mph /  5.1 km/h 8.0 mph /  12.9 km/h 94 % 0.0 in /  0 mm
06:47 9.4 °F /  -12.6 °C 8.5 °F /  -13.1 °C 1015.8 in /  34395 hPa West 1.6 mph /  2.6 km/h 8.0 mph /  12.9 km/h 94 % 0.0 in /  0 mm
06:52 9.5 °F /  -12.5 °C 8.6 °F /  -13 °C 1015.8 in /  34395 hPa SW 3.2 mph /  5.1 km/h 8.0 mph /  12.9 km/h 94 % 0.0 in /  0 mm
06:57 9.5 °F /  -12.5 °C 8.6 °F /  -13 °C 1015.8 in /  34395 hPa West 1.6 mph /  2.6 km/h 8.0 mph /  12.9 km/h 94 % 0.0 in /  0 mm
07:02 9.5 °F /  -12.5 °C 8.6 °F /  -13 °C 1016.1 in /  34405.1 hPa WSW 6.4 mph /  10.3 km/h 8.0 mph /  12.9 km/h 94 % 0.0 in /  0 mm
07:12 9.6 °F /  -12.4 °C 8.7 °F /  -12.9 °C 1015.8 in /  34395 hPa Calm   6.4 mph /  10.3 km/h 94 % 0.0 in /  0 mm
07:17 9.6 °F /  -12.4 °C 8.7 °F /  -12.9 °C 1016.1 in /  34405.1 hPa Calm   6.4 mph /  10.3 km/h 94 % 0.0 in /  0 mm
07:22 9.6 °F /  -12.4 °C 8.7 °F /  -12.9 °C 1016.1 in /  34405.1 hPa Calm   6.4 mph /  10.3 km/h 94 % 0.0 in /  0 mm
07:32 9.6 °F /  -12.4 °C 8.7 °F /  -12.9 °C 1016.1 in /  34405.1 hPa Calm   9.7 mph /  15.6 km/h 94 % 0.0 in /  0 mm
07:42 9.7 °F /  -12.4 °C 8.6 °F /  -13 °C 1016.1 in /  34405.1 hPa WSW 3.2 mph /  5.1 km/h 6.4 mph /  10.3 km/h 93 % 0.0 in /  0 mm
07:47 9.6 °F /  -12.4 °C 8.5 °F /  -13.1 °C 1016.1 in /  34405.1 hPa WSW 6.4 mph /  10.3 km/h 8.0 mph /  12.9 km/h 93 % 0.0 in /  0 mm
07:52 9.7 °F /  -12.4 °C 8.5 °F /  -13.1 °C 1016.5 in /  34418.7 hPa West 1.6 mph /  2.6 km/h 8.0 mph /  12.9 km/h 92 % 0.0 in /  0 mm
08:02 9.8 °F /  -12.3 °C 8.6 °F /  -13 °C 1016.5 in /  34418.7 hPa SW 3.2 mph /  5.1 km/h 11.3 mph /  18.2 km/h 92 % 0.0 in /  0 mm
08:12 9.9 °F /  -12.3 °C 8.7 °F /  -12.9 °C 1016.5 in /  34418.7 hPa WSW 11.3 mph /  18.2 km/h 11.3 mph /  18.2 km/h 92 % 0.0 in /  0 mm
08:17 9.9 °F /  -12.3 °C 8.7 °F /  -12.9 °C 1016.5 in /  34418.7 hPa SW 8.0 mph /  12.9 km/h 9.7 mph /  15.6 km/h 92 % 0.0 in /  0 mm
08:22 9.9 °F /  -12.3 °C 8.5 °F /  -13.1 °C 1016.5 in /  34418.7 hPa West 3.2 mph /  5.1 km/h 9.7 mph /  15.6 km/h 91 % 0.0 in /  0 mm
08:27 9.9 °F /  -12.3 °C 8.5 °F /  -13.1 °C 1016.5 in /  34418.7 hPa WSW 11.3 mph /  18.2 km/h 12.9 mph /  20.8 km/h 91 % 0.0 in /  0 mm
08:32 9.9 °F /  -12.3 °C 8.5 °F /  -13.1 °C 1016.8 in /  34428.8 hPa SW 8.0 mph /  12.9 km/h 12.9 mph /  20.8 km/h 91 % 0.0 in /  0 mm
08:42 9.8 °F /  -12.3 °C 8.6 °F /  -13 °C 1016.8 in /  34428.8 hPa SW 6.4 mph /  10.3 km/h 16.1 mph /  25.9 km/h 92 % 0.0 in /  0 mm
08:47 9.8 °F /  -12.3 °C 8.6 °F /  -13 °C 1016.8 in /  34428.8 hPa SW 3.2 mph /  5.1 km/h 12.9 mph /  20.8 km/h 92 % 0.0 in /  0 mm
08:52 9.7 °F /  -12.4 °C 8.5 °F /  -13.1 °C 1016.8 in /  34428.8 hPa SW 4.8 mph /  7.7 km/h 12.9 mph /  20.8 km/h 92 % 0.0 in /  0 mm
09:02 9.7 °F /  -12.4 °C 8.6 °F /  -13 °C 1016.8 in /  34428.8 hPa SW 4.8 mph /  7.7 km/h 12.9 mph /  20.8 km/h 93 % 0.5 in /  12.7 mm
09:12 9.8 °F /  -12.3 °C 8.7 °F /  -12.9 °C 1016.8 in /  34428.8 hPa WSW 3.2 mph /  5.1 km/h 9.7 mph /  15.6 km/h 93 % 0.5 in /  12.7 mm
09:17 9.8 °F /  -12.3 °C 8.6 °F /  -13 °C 1016.8 in /  34428.8 hPa WSW 6.4 mph /  10.3 km/h 12.9 mph /  20.8 km/h 92 % 0.8 in /  20.32 mm
09:22 10.1 °F /  -12.2 °C 9.0 °F /  -12.8 °C 1016.8 in /  34428.8 hPa WSW 6.4 mph /  10.3 km/h 12.9 mph /  20.8 km/h 93 % 0.8 in /  20.32 mm
09:32 10.2 °F /  -12.1 °C 8.8 °F /  -12.9 °C 1016.8 in /  34428.8 hPa South 6.4 mph /  10.3 km/h 12.9 mph /  20.8 km/h 91 % 0.8 in /  20.32 mm
09:42 10.5 °F /  -11.9 °C 9.1 °F /  -12.7 °C 1017.2 in /  34442.4 hPa WNW 6.4 mph /  10.3 km/h 14.5 mph /  23.3 km/h 91 % 0.8 in /  20.32 mm
09:47 10.6 °F /  -11.9 °C 9.0 °F /  -12.8 °C 1017.2 in /  34442.4 hPa West 4.8 mph /  7.7 km/h 14.5 mph /  23.3 km/h 90 % 0.5 in /  12.7 mm
09:52 10.6 °F /  -11.9 °C 8.5 °F /  -13.1 °C 1017.2 in /  34442.4 hPa WSW 6.4 mph /  10.3 km/h 14.5 mph /  23.3 km/h 87 % 0.5 in /  12.7 mm
10:02 10.9 °F /  -11.7 °C 8.8 °F /  -12.9 °C 1017.2 in /  34442.4 hPa West 4.8 mph /  7.7 km/h 14.5 mph /  23.3 km/h 87 % 0.5 in /  12.7 mm
10:12 10.9 °F /  -11.7 °C 8.5 °F /  -13.1 °C 1017.2 in /  34442.4 hPa SSW 8.0 mph /  12.9 km/h 16.1 mph /  25.9 km/h 85 % 0.3 in /  7.62 mm
10:17 10.9 °F /  -11.7 °C 8.5 °F /  -13.1 °C 1017.2 in /  34442.4 hPa WNW 4.8 mph /  7.7 km/h 19.3 mph /  31.1 km/h 85 % 0.0 in /  0 mm
10:22 10.9 °F /  -11.7 °C 8.6 °F /  -13 °C 1017.2 in /  34442.4 hPa West 4.8 mph /  7.7 km/h 19.3 mph /  31.1 km/h 86 % 0.0 in /  0 mm
10:32 10.4 °F /  -12 °C 8.2 °F /  -13.2 °C 1017.2 in /  34442.4 hPa WNW 3.2 mph /  5.1 km/h 19.3 mph /  31.1 km/h 86 % 0.0 in /  0 mm
10:37 10.2 °F /  -12.1 °C 8.1 °F /  -13.3 °C 1017.2 in /  34442.4 hPa WSW 8.0 mph /  12.9 km/h 17.7 mph /  28.5 km/h 87 % 0.0 in /  0 mm
10:42 10.0 °F /  -12.2 °C 8.1 °F /  -13.3 °C 1017.5 in /  34452.6 hPa SW 9.7 mph /  15.6 km/h 17.7 mph /  28.5 km/h 88 % 0.0 in /  0 mm
10:52 9.6 °F /  -12.4 °C 8.0 °F /  -13.3 °C 1017.2 in /  34442.4 hPa West 3.2 mph /  5.1 km/h 14.5 mph /  23.3 km/h 90 % 0.5 in /  12.7 mm
10:57 9.7 °F /  -12.4 °C 8.1 °F /  -13.3 °C 1017.2 in /  34442.4 hPa WNW 3.2 mph /  5.1 km/h 14.5 mph /  23.3 km/h 90 % 2.3 in /  58.42 mm
11:02 10.1 °F /  -12.2 °C 8.9 °F /  -12.8 °C 1017.2 in /  34442.4 hPa WSW 6.4 mph /  10.3 km/h 14.5 mph /  23.3 km/h 92 % 2.3 in /  58.42 mm
11:07 10.3 °F /  -12.1 °C 8.7 °F /  -12.9 °C 1017.2 in /  34442.4 hPa WNW 9.7 mph /  15.6 km/h 14.5 mph /  23.3 km/h 90 % 2.3 in /  58.42 mm
11:12 10.6 °F /  -11.9 °C 8.7 °F /  -12.9 °C 1017.2 in /  34442.4 hPa SW 8.0 mph /  12.9 km/h 14.5 mph /  23.3 km/h 88 % 2.3 in /  58.42 mm
11:17 10.7 °F /  -11.8 °C 8.1 °F /  -13.3 °C 1017.2 in /  34442.4 hPa WSW 9.7 mph /  15.6 km/h 20.9 mph /  33.6 km/h 84 % 2.3 in /  58.42 mm
11:22 11.0 °F /  -11.7 °C 8.7 °F /  -12.9 °C 1017.2 in /  34442.4 hPa SSW 8.0 mph /  12.9 km/h 20.9 mph /  33.6 km/h 86 % 2.3 in /  58.42 mm
11:32 12.1 °F /  -11.1 °C 9.1 °F /  -12.7 °C 1017.2 in /  34442.4 hPa WSW 12.9 mph /  20.8 km/h 19.3 mph /  31.1 km/h 82 % 2.3 in /  58.42 mm
11:37 12.3 °F /  -10.9 °C 9.1 °F /  -12.7 °C 1017.2 in /  34442.4 hPa WSW 9.7 mph /  15.6 km/h 22.5 mph /  36.2 km/h 81 % 2.3 in /  58.42 mm
11:47 12.5 °F /  -10.8 °C 9.1 °F /  -12.7 °C 1017.5 in /  34452.6 hPa WSW 17.7 mph /  28.5 km/h 24.1 mph /  38.8 km/h 80 % 0.8 in /  20.32 mm
11:52 12.2 °F /  -11 °C 8.1 °F /  -13.3 °C 1017.5 in /  34452.6 hPa WSW 20.9 mph /  33.6 km/h 25.7 mph /  41.4 km/h 76 % 0.0 in /  0 mm
12:02 12.7 °F /  -10.7 °C 8.6 °F /  -13 °C 1017.2 in /  34442.4 hPa SSW 12.9 mph /  20.8 km/h 25.7 mph /  41.4 km/h 76 % 0.0 in /  0 mm
12:07 12.7 °F /  -10.7 °C 7.4 °F /  -13.7 °C 1017.2 in /  34442.4 hPa WNW 9.7 mph /  15.6 km/h 24.1 mph /  38.8 km/h 70 % 0.0 in /  0 mm
12:12 12.7 °F /  -10.7 °C 7.2 °F /  -13.8 °C 1017.2 in /  34442.4 hPa West 17.7 mph /  28.5 km/h 25.7 mph /  41.4 km/h 69 % 0.0 in /  0 mm
12:17 12.7 °F /  -10.7 °C 8.4 °F /  -13.1 °C 1017.2 in /  34442.4 hPa SW 16.1 mph /  25.9 km/h 25.7 mph /  41.4 km/h 75 % 0.0 in /  0 mm
12:22 12.8 °F /  -10.7 °C 7.9 °F /  -13.4 °C 1017.2 in /  34442.4 hPa SW 6.4 mph /  10.3 km/h 25.7 mph /  41.4 km/h 72 % 0.0 in /  0 mm
12:27 12.9 °F /  -10.6 °C 8.0 °F /  -13.3 °C 1017.2 in /  34442.4 hPa WSW 12.9 mph /  20.8 km/h 25.7 mph /  41.4 km/h 72 % 0.0 in /  0 mm
12:32 12.9 °F /  -10.6 °C 6.9 °F /  -13.9 °C 1017.2 in /  34442.4 hPa SW 4.8 mph /  7.7 km/h 20.9 mph /  33.6 km/h 67 % 0.0 in /  0 mm
12:37 13.2 °F /  -10.4 °C 7.4 °F /  -13.7 °C 1017.2 in /  34442.4 hPa SW 9.7 mph /  15.6 km/h 20.9 mph /  33.6 km/h 68 % 0.0 in /  0 mm
12:42 13.3 °F /  -10.4 °C 7.7 °F /  -13.5 °C 1017.2 in /  34442.4 hPa WSW 12.9 mph /  20.8 km/h 20.9 mph /  33.6 km/h 69 % 0.0 in /  0 mm
12:47 13.5 °F /  -10.3 °C 7.9 °F /  -13.4 °C 1017.2 in /  34442.4 hPa SW 19.3 mph /  31.1 km/h 24.1 mph /  38.8 km/h 69 % 0.0 in /  0 mm
12:57 12.9 °F /  -10.6 °C 8.0 °F /  -13.3 °C 1017.2 in /  34442.4 hPa West 8.0 mph /  12.9 km/h 27.4 mph /  44.1 km/h 72 % 0.0 in /  0 mm
13:02 13.0 °F /  -10.6 °C 8.1 °F /  -13.3 °C 1017.2 in /  34442.4 hPa SW 11.3 mph /  18.2 km/h 27.4 mph /  44.1 km/h 72 % 0.0 in /  0 mm
13:07 13.6 °F /  -10.2 °C 7.1 °F /  -13.8 °C 1017.2 in /  34442.4 hPa SW 16.1 mph /  25.9 km/h 20.9 mph /  33.6 km/h 65 % 0.0 in /  0 mm
13:12 13.6 °F /  -10.2 °C 6.5 °F /  -14.2 °C 1017.2 in /  34442.4 hPa WSW 8.0 mph /  12.9 km/h 20.9 mph /  33.6 km/h 62 % 0.0 in /  0 mm
13:17 13.4 °F /  -10.3 °C 7.2 °F /  -13.8 °C 1017.2 in /  34442.4 hPa WSW 8.0 mph /  12.9 km/h 22.5 mph /  36.2 km/h 66 % 0.0 in /  0 mm
13:22 13.6 °F /  -10.2 °C 7.6 °F /  -13.6 °C 1017.2 in /  34442.4 hPa WSW 16.1 mph /  25.9 km/h 22.5 mph /  36.2 km/h 67 % 0.0 in /  0 mm
13:32 13.7 °F /  -10.2 °C 7.7 °F /  -13.5 °C 1017.2 in /  34442.4 hPa SW 12.9 mph /  20.8 km/h 22.5 mph /  36.2 km/h 67 % 0.0 in /  0 mm
13:37 13.9 °F /  -10.1 °C 7.9 °F /  -13.4 °C 1017.2 in /  34442.4 hPa SW 12.9 mph /  20.8 km/h 22.5 mph /  36.2 km/h 67 % 0.0 in /  0 mm
13:42 13.9 °F /  -10.1 °C 7.2 °F /  -13.8 °C 1017.2 in /  34442.4 hPa SSW 8.0 mph /  12.9 km/h 25.7 mph /  41.4 km/h 64 % 0.0 in /  0 mm
13:52 14.2 °F /  -9.9 °C 7.0 °F /  -13.9 °C 1017.2 in /  34442.4 hPa WSW 24.1 mph /  38.8 km/h 25.7 mph /  41.4 km/h 62 % 0.0 in /  0 mm
13:57 13.4 °F /  -10.3 °C 8.2 °F /  -13.2 °C 1017.2 in /  34442.4 hPa WSW 9.7 mph /  15.6 km/h 35.4 mph /  57 km/h 71 % 0.0 in /  0 mm
14:02 12.1 °F /  -11.1 °C 8.0 °F /  -13.3 °C 1017.5 in /  34452.6 hPa SW 20.9 mph /  33.6 km/h 35.4 mph /  57 km/h 76 % 0.0 in /  0 mm
14:07 11.4 °F /  -11.4 °C 8.3 °F /  -13.2 °C 1017.5 in /  34452.6 hPa WSW 24.1 mph /  38.8 km/h 35.4 mph /  57 km/h 81 % 0.0 in /  0 mm
14:17 11.0 °F /  -11.7 °C 8.9 °F /  -12.8 °C 1017.5 in /  34452.6 hPa WSW 11.3 mph /  18.2 km/h 30.6 mph /  49.2 km/h 87 % 0.3 in /  7.62 mm
14:22 11.0 °F /  -11.7 °C 8.4 °F /  -13.1 °C 1017.5 in /  34452.6 hPa WSW 8.0 mph /  12.9 km/h 30.6 mph /  49.2 km/h 84 % 0.3 in /  7.62 mm
14:32 10.8 °F /  -11.8 °C 7.9 °F /  -13.4 °C 1017.5 in /  34452.6 hPa SW 6.4 mph /  10.3 km/h 24.1 mph /  38.8 km/h 82 % 0.5 in /  12.7 mm
14:37 10.7 °F /  -11.8 °C 7.9 °F /  -13.4 °C 1017.5 in /  34452.6 hPa SW 6.4 mph /  10.3 km/h 24.1 mph /  38.8 km/h 83 % 0.5 in /  12.7 mm
14:42 10.8 °F /  -11.8 °C 8.0 °F /  -13.3 °C 1017.5 in /  34452.6 hPa WSW 12.9 mph /  20.8 km/h 24.1 mph /  38.8 km/h 83 % 0.5 in /  12.7 mm
14:52 11.6 °F /  -11.3 °C 8.5 °F /  -13.1 °C 1017.5 in /  34452.6 hPa SW 8.0 mph /  12.9 km/h 17.7 mph /  28.5 km/h 81 % 0.5 in /  12.7 mm
14:57 12.2 °F /  -11 °C 8.7 °F /  -12.9 °C 1017.2 in /  34442.4 hPa SSW 8.0 mph /  12.9 km/h 17.7 mph /  28.5 km/h 79 % 0.5 in /  12.7 mm
15:02 12.8 °F /  -10.7 °C 8.9 °F /  -12.8 °C 1017.2 in /  34442.4 hPa SW 3.2 mph /  5.1 km/h 17.7 mph /  28.5 km/h 77 % 0.5 in /  12.7 mm
15:07 13.2 °F /  -10.4 °C 7.8 °F /  -13.4 °C 1017.2 in /  34442.4 hPa WSW 12.9 mph /  20.8 km/h 19.3 mph /  31.1 km/h 70 % 0.5 in /  12.7 mm
15:12 13.5 °F /  -10.3 °C 7.9 °F /  -13.4 °C 1017.2 in /  34442.4 hPa South 9.7 mph /  15.6 km/h 19.3 mph /  31.1 km/h 69 % 0.3 in /  7.62 mm
15:17 13.4 °F /  -10.3 °C 8.5 °F /  -13.1 °C 1017.2 in /  34442.4 hPa SW 6.4 mph /  10.3 km/h 24.1 mph /  38.8 km/h 72 % 0.3 in /  7.62 mm
15:22 13.6 °F /  -10.2 °C 7.6 °F /  -13.6 °C 1017.2 in /  34442.4 hPa WSW 8.0 mph /  12.9 km/h 24.1 mph /  38.8 km/h 67 % 0.3 in /  7.62 mm
15:32 13.3 °F /  -10.4 °C 6.9 °F /  -13.9 °C 1017.2 in /  34442.4 hPa SW 17.7 mph /  28.5 km/h 24.1 mph /  38.8 km/h 65 % 0.0 in /  0 mm
15:37 13.1 °F /  -10.5 °C 6.4 °F /  -14.2 °C 1017.2 in /  34442.4 hPa SSW 9.7 mph /  15.6 km/h 22.5 mph /  36.2 km/h 64 % 0.0 in /  0 mm
15:42 13.1 °F /  -10.5 °C 7.1 °F /  -13.8 °C 1017.2 in /  34442.4 hPa WSW 9.7 mph /  15.6 km/h 22.5 mph /  36.2 km/h 67 % 0.0 in /  0 mm
15:47 13.4 °F /  -10.3 °C 7.4 °F /  -13.7 °C 1017.2 in /  34442.4 hPa West 14.5 mph /  23.3 km/h 24.1 mph /  38.8 km/h 67 % 0.0 in /  0 mm
15:57 13.9 °F /  -10.1 °C 7.9 °F /  -13.4 °C 1017.2 in /  34442.4 hPa SW 3.2 mph /  5.1 km/h 22.5 mph /  36.2 km/h 67 % 0.0 in /  0 mm
16:02 13.8 °F /  -10.1 °C 7.6 °F /  -13.6 °C 1017.2 in /  34442.4 hPa SW 11.3 mph /  18.2 km/h 22.5 mph /  36.2 km/h 66 % 0.0 in /  0 mm
16:07 13.8 °F /  -10.1 °C 7.8 °F /  -13.4 °C 1017.2 in /  34442.4 hPa WSW 8.0 mph /  12.9 km/h 17.7 mph /  28.5 km/h 67 % 0.0 in /  0 mm
16:12 13.6 °F /  -10.2 °C 6.9 °F /  -13.9 °C 1017.2 in /  34442.4 hPa WSW 9.7 mph /  15.6 km/h 17.7 mph /  28.5 km/h 64 % 0.0 in /  0 mm
16:17 13.3 °F /  -10.4 °C 7.1 °F /  -13.8 °C 1017.2 in /  34442.4 hPa WSW 11.3 mph /  18.2 km/h 17.7 mph /  28.5 km/h 66 % 0.0 in /  0 mm
16:22 13.2 °F /  -10.4 °C 6.5 °F /  -14.2 °C 1017.5 in /  34452.6 hPa West 11.3 mph /  18.2 km/h 17.7 mph /  28.5 km/h 64 % 0.0 in /  0 mm
16:27 13.1 °F /  -10.5 °C 6.4 °F /  -14.2 °C 1017.5 in /  34452.6 hPa SW 9.7 mph /  15.6 km/h 20.9 mph /  33.6 km/h 64 % 0.0 in /  0 mm
16:32 13.0 °F /  -10.6 °C 7.0 °F /  -13.9 °C 1017.5 in /  34452.6 hPa West 1.6 mph /  2.6 km/h 20.9 mph /  33.6 km/h 67 % 0.0 in /  0 mm
16:37 12.9 °F /  -10.6 °C 6.9 °F /  -13.9 °C 1017.2 in /  34442.4 hPa WSW 6.4 mph /  10.3 km/h 12.9 mph /  20.8 km/h 67 % 0.0 in /  0 mm
16:42 12.8 °F /  -10.7 °C 6.8 °F /  -14 °C 1017.5 in /  34452.6 hPa WSW 6.4 mph /  10.3 km/h 12.9 mph /  20.8 km/h 67 % 0.0 in /  0 mm
16:47 12.7 °F /  -10.7 °C 6.9 °F /  -13.9 °C 1017.5 in /  34452.6 hPa SSW 6.4 mph /  10.3 km/h 16.1 mph /  25.9 km/h 68 % 0.0 in /  0 mm
16:52 12.8 °F /  -10.7 °C 7.9 °F /  -13.4 °C 1017.5 in /  34452.6 hPa WSW 12.9 mph /  20.8 km/h 16.1 mph /  25.9 km/h 72 % 0.0 in /  0 mm
16:57 12.7 °F /  -10.7 °C 7.4 °F /  -13.7 °C 1017.5 in /  34452.6 hPa SW 9.7 mph /  15.6 km/h 19.3 mph /  31.1 km/h 70 % 0.0 in /  0 mm
17:02 12.9 °F /  -10.6 °C 7.8 °F /  -13.4 °C 1017.5 in /  34452.6 hPa WSW 9.7 mph /  15.6 km/h 19.3 mph /  31.1 km/h 71 % 0.0 in /  0 mm
17:07 13.1 °F /  -10.5 °C 7.5 °F /  -13.6 °C 1017.5 in /  34452.6 hPa WNW 14.5 mph /  23.3 km/h 20.9 mph /  33.6 km/h 69 % 0.0 in /  0 mm
17:12 12.8 °F /  -10.7 °C 7.9 °F /  -13.4 °C 1017.5 in /  34452.6 hPa WNW 9.7 mph /  15.6 km/h 20.9 mph /  33.6 km/h 72 % 0.0 in /  0 mm
17:17 12.4 °F /  -10.9 °C 7.9 °F /  -13.4 °C 1017.5 in /  34452.6 hPa WNW 3.2 mph /  5.1 km/h 20.9 mph /  33.6 km/h 74 % 0.0 in /  0 mm
17:22 12.0 °F /  -11.1 °C 6.9 °F /  -13.9 °C 1017.5 in /  34452.6 hPa West 11.3 mph /  18.2 km/h 20.9 mph /  33.6 km/h 71 % 0.0 in /  0 mm
17:32 11.5 °F /  -11.4 °C 7.0 °F /  -13.9 °C 1017.5 in /  34452.6 hPa WNW 3.2 mph /  5.1 km/h 16.1 mph /  25.9 km/h 74 % 0.0 in /  0 mm
17:37 11.5 °F /  -11.4 °C 7.2 °F /  -13.8 °C 1017.2 in /  34442.4 hPa NW 6.4 mph /  10.3 km/h 14.5 mph /  23.3 km/h 75 % 0.0 in /  0 mm
17:42 11.4 °F /  -11.4 °C 6.9 °F /  -13.9 °C 1017.2 in /  34442.4 hPa WNW 4.8 mph /  7.7 km/h 14.5 mph /  23.3 km/h 74 % 0.0 in /  0 mm
17:47 11.3 °F /  -11.5 °C 7.2 °F /  -13.8 °C 1017.5 in /  34452.6 hPa NW 3.2 mph /  5.1 km/h 9.7 mph /  15.6 km/h 76 % 0.0 in /  0 mm
17:52 11.0 °F /  -11.7 °C 7.1 °F /  -13.8 °C 1017.5 in /  34452.6 hPa Calm   9.7 mph /  15.6 km/h 77 % 0.3 in /  7.62 mm
18:02 10.6 °F /  -11.9 °C 7.5 °F /  -13.6 °C 1018.2 in /  34476.3 hPa WNW 6.4 mph /  10.3 km/h 6.4 mph /  10.3 km/h 81 % 0.5 in /  12.7 mm
18:12 10.0 °F /  -12.2 °C 7.4 °F /  -13.7 °C 1018.2 in /  34476.3 hPa West 1.6 mph /  2.6 km/h 20.9 mph /  33.6 km/h 84 % 1.5 in /  38.1 mm
18:17 10.1 °F /  -12.2 °C 7.7 °F /  -13.5 °C 1017.8 in /  34462.7 hPa NW 3.2 mph /  5.1 km/h 20.9 mph /  33.6 km/h 85 % 1.5 in /  38.1 mm
18:22 10.2 °F /  -12.1 °C 8.0 °F /  -13.3 °C 1017.8 in /  34462.7 hPa NNW 3.2 mph /  5.1 km/h 20.9 mph /  33.6 km/h 86 % 1.5 in /  38.1 mm
18:27 10.2 °F /  -12.1 °C 8.0 °F /  -13.3 °C 1017.8 in /  34462.7 hPa NNW 6.4 mph /  10.3 km/h 20.9 mph /  33.6 km/h 86 % 1.5 in /  38.1 mm
18:32 10.1 °F /  -12.2 °C 7.9 °F /  -13.4 °C 1017.8 in /  34462.7 hPa WNW 4.8 mph /  7.7 km/h 6.4 mph /  10.3 km/h 86 % 1.5 in /  38.1 mm
18:37 10.2 °F /  -12.1 °C 8.0 °F /  -13.3 °C 1017.8 in /  34462.7 hPa NW 3.2 mph /  5.1 km/h 6.4 mph /  10.3 km/h 86 % 1.5 in /  38.1 mm
18:42 10.4 °F /  -12 °C 8.0 °F /  -13.3 °C 1017.8 in /  34462.7 hPa Calm   12.9 mph /  20.8 km/h 85 % 1.5 in /  38.1 mm
18:47 10.9 °F /  -11.7 °C 8.1 °F /  -13.3 °C 1017.8 in /  34462.7 hPa North 4.8 mph /  7.7 km/h 8.0 mph /  12.9 km/h 83 % 1.5 in /  38.1 mm
18:52 10.9 °F /  -11.7 °C 7.8 °F /  -13.4 °C 1017.8 in /  34462.7 hPa NNW 6.4 mph /  10.3 km/h 8.0 mph /  12.9 km/h 81 % 1.5 in /  38.1 mm
19:02 11.4 °F /  -11.4 °C 8.1 °F /  -13.3 °C 1018.2 in /  34476.3 hPa North 1.6 mph /  2.6 km/h 9.7 mph /  15.6 km/h 80 % 0.8 in /  20.32 mm
19:12 11.5 °F /  -11.4 °C 7.4 °F /  -13.7 °C 1018.2 in /  34476.3 hPa North 1.6 mph /  2.6 km/h 9.7 mph /  15.6 km/h 76 % 0.0 in /  0 mm
19:22 11.1 °F /  -11.6 °C 7.6 °F /  -13.6 °C 1018.5 in /  34486.4 hPa North 1.6 mph /  2.6 km/h 4.8 mph /  7.7 km/h 79 % 0.0 in /  0 mm
19:27 10.8 °F /  -11.8 °C 7.7 °F /  -13.5 °C 1018.2 in /  34476.3 hPa Calm   6.4 mph /  10.3 km/h 81 % 0.0 in /  0 mm
19:32 10.7 °F /  -11.8 °C 7.8 °F /  -13.4 °C 1018.5 in /  34486.4 hPa WNW 1.6 mph /  2.6 km/h 6.4 mph /  10.3 km/h 82 % 0.0 in /  0 mm
19:42 10.3 °F /  -12.1 °C 7.7 °F /  -13.5 °C 1018.2 in /  34476.3 hPa NE 1.6 mph /  2.6 km/h 6.4 mph /  10.3 km/h 84 % 0.5 in /  12.7 mm
19:52 9.9 °F /  -12.3 °C 7.8 °F /  -13.4 °C 1018.5 in /  34486.4 hPa Calm   6.4 mph /  10.3 km/h 87 % 0.5 in /  12.7 mm
19:57 9.9 °F /  -12.3 °C 7.8 °F /  -13.4 °C 1018.2 in /  34476.3 hPa Calm   4.8 mph /  7.7 km/h 87 % 0.5 in /  12.7 mm
20:02 9.8 °F /  -12.3 °C 7.7 °F /  -13.5 °C 1018.2 in /  34476.3 hPa Calm   4.8 mph /  7.7 km/h 87 % 0.5 in /  12.7 mm
20:12 9.9 °F /  -12.3 °C 8.0 °F /  -13.3 °C 1018.2 in /  34476.3 hPa Calm   1.6 mph /  2.6 km/h 88 % 0.5 in /  12.7 mm
20:17 9.9 °F /  -12.3 °C 8.2 °F /  -13.2 °C 1018.5 in /  34486.4 hPa Calm     89 % 0.5 in /  12.7 mm
20:22 10.0 °F /  -12.2 °C 8.3 °F /  -13.2 °C 1018.5 in /  34486.4 hPa Calm     89 % 0.5 in /  12.7 mm
20:32 9.9 °F /  -12.3 °C 8.2 °F /  -13.2 °C 1018.5 in /  34486.4 hPa Calm     89 % 0.5 in /  12.7 mm
20:42 9.8 °F /  -12.3 °C 8.2 °F /  -13.2 °C 1018.5 in /  34486.4 hPa Calm     90 % 0.0 in /  0 mm
20:47 9.9 °F /  -12.3 °C 8.5 °F /  -13.1 °C 1018.5 in /  34486.4 hPa Calm   1.6 mph /  2.6 km/h 91 % 0.0 in /  0 mm
20:52 9.8 °F /  -12.3 °C 8.4 °F /  -13.1 °C 1018.5 in /  34486.4 hPa Calm   1.6 mph /  2.6 km/h 91 % 0.0 in /  0 mm
20:57 9.7 °F /  -12.4 °C 8.3 °F /  -13.2 °C 1018.5 in /  34486.4 hPa Calm   1.6 mph /  2.6 km/h 91 % 0.0 in /  0 mm
21:02 9.6 °F /  -12.4 °C 8.2 °F /  -13.2 °C 1018.5 in /  34486.4 hPa Calm   1.6 mph /  2.6 km/h 91 % 0.0 in /  0 mm
21:07 9.5 °F /  -12.5 °C 8.1 °F /  -13.3 °C 1018.5 in /  34486.4 hPa Calm   1.6 mph /  2.6 km/h 91 % 0.0 in /  0 mm
21:12 9.5 °F /  -12.5 °C 8.3 °F /  -13.2 °C 1018.5 in /  34486.4 hPa ESE 1.6 mph /  2.6 km/h 1.6 mph /  2.6 km/h 92 % 0.0 in /  0 mm
21:17 9.5 °F /  -12.5 °C 8.3 °F /  -13.2 °C 1018.5 in /  34486.4 hPa Calm   1.6 mph /  2.6 km/h 92 % 0.0 in /  0 mm
21:22 9.5 °F /  -12.5 °C 8.3 °F /  -13.2 °C 1018.5 in /  34486.4 hPa Calm   1.6 mph /  2.6 km/h 92 % 0.0 in /  0 mm
21:32 9.4 °F /  -12.6 °C 8.2 °F /  -13.2 °C 1018.5 in /  34486.4 hPa Calm   1.6 mph /  2.6 km/h 92 % 0.0 in /  0 mm
21:37 9.3 °F /  -12.6 °C 8.1 °F /  -13.3 °C 1018.8 in /  34496.6 hPa WSW 3.2 mph /  5.1 km/h 3.2 mph /  5.1 km/h 92 % 0.0 in /  0 mm
21:42 9.3 °F /  -12.6 °C 7.9 °F /  -13.4 °C 1019.2 in /  34510.1 hPa WSW 16.1 mph /  25.9 km/h 16.1 mph /  25.9 km/h 91 % 0.8 in /  20.32 mm
21:52 8.8 °F /  -12.9 °C 6.9 °F /  -13.9 °C 1019.2 in /  34510.1 hPa WNW 1.6 mph /  2.6 km/h 20.9 mph /  33.6 km/h 88 % 1.5 in /  38.1 mm
21:57 8.8 °F /  -12.9 °C 6.9 °F /  -13.9 °C 1019.2 in /  34510.1 hPa West 1.6 mph /  2.6 km/h 20.9 mph /  33.6 km/h 88 % 1.8 in /  45.72 mm
22:02 8.7 °F /  -12.9 °C 6.8 °F /  -14 °C 1019.2 in /  34510.1 hPa Calm   20.9 mph /  33.6 km/h 88 % 1.8 in /  45.72 mm
22:12 8.6 °F /  -13 °C 6.9 °F /  -13.9 °C 1019.2 in /  34510.1 hPa WNW 4.8 mph /  7.7 km/h 9.7 mph /  15.6 km/h 89 % 1.8 in /  45.72 mm
22:17 8.5 °F /  -13.1 °C 6.8 °F /  -14 °C 1019.2 in /  34510.1 hPa SSW 4.8 mph /  7.7 km/h 9.7 mph /  15.6 km/h 89 % 1.8 in /  45.72 mm
22:22 8.5 °F /  -13.1 °C 7.0 °F /  -13.9 °C 1019.2 in /  34510.1 hPa WSW 6.4 mph /  10.3 km/h 9.7 mph /  15.6 km/h 90 % 1.8 in /  45.72 mm
22:32 8.4 °F /  -13.1 °C 7.0 °F /  -13.9 °C 1019.2 in /  34510.1 hPa SSW 6.4 mph /  10.3 km/h 11.3 mph /  18.2 km/h 91 % 1.8 in /  45.72 mm
22:42 8.4 °F /  -13.1 °C 7.2 °F /  -13.8 °C 1019.2 in /  34510.1 hPa Calm   11.3 mph /  18.2 km/h 92 % 0.5 in /  12.7 mm
22:47 8.4 °F /  -13.1 °C 7.2 °F /  -13.8 °C 1019.2 in /  34510.1 hPa SE 3.2 mph /  5.1 km/h 8.0 mph /  12.9 km/h 92 % 0.3 in /  7.62 mm
22:52 8.3 °F /  -13.2 °C 7.2 °F /  -13.8 °C 1019.2 in /  34510.1 hPa SSW 3.2 mph /  5.1 km/h 8.0 mph /  12.9 km/h 93 % 0.3 in /  7.62 mm
22:57 8.3 °F /  -13.2 °C 7.2 °F /  -13.8 °C 1019.2 in /  34510.1 hPa SSW 3.2 mph /  5.1 km/h 8.0 mph /  12.9 km/h 93 % 0.0 in /  0 mm
23:02 8.3 °F /  -13.2 °C 7.2 °F /  -13.8 °C 1019.2 in /  34510.1 hPa SSW 3.2 mph /  5.1 km/h 8.0 mph /  12.9 km/h 93 % 0.0 in /  0 mm
23:12 8.2 °F /  -13.2 °C 7.1 °F /  -13.8 °C 1019.2 in /  34510.1 hPa South 4.8 mph /  7.7 km/h 6.4 mph /  10.3 km/h 93 % 0.0 in /  0 mm
23:17 8.1 °F /  -13.3 °C 7.2 °F /  -13.8 °C 1019.2 in /  34510.1 hPa SSW 6.4 mph /  10.3 km/h 8.0 mph /  12.9 km/h 94 % 0.0 in /  0 mm
23:22 8.1 °F /  -13.3 °C 7.2 °F /  -13.8 °C 1019.2 in /  34510.1 hPa SW 9.7 mph /  15.6 km/h 9.7 mph /  15.6 km/h 94 % 0.0 in /  0 mm
23:32 8.1 °F /  -13.3 °C 7.2 °F /  -13.8 °C 1019.2 in /  34510.1 hPa SSW 9.7 mph /  15.6 km/h 9.7 mph /  15.6 km/h 94 % 0.0 in /  0 mm
23:42 8.1 °F /  -13.3 °C 7.2 °F /  -13.8 °C 1019.5 in /  34520.3 hPa SSW 3.2 mph /  5.1 km/h 12.9 mph /  20.8 km/h 94 % 0.0 in /  0 mm
23:47 8.1 °F /  -13.3 °C 7.3 °F /  -13.7 °C 1019.5 in /  34520.3 hPa SSW 4.8 mph /  7.7 km/h 12.9 mph /  20.8 km/h 95 % 0.0 in /  0 mm
23:52 8.1 °F /  -13.3 °C 7.3 °F /  -13.7 °C 1019.5 in /  34520.3 hPa SSW 3.2 mph /  5.1 km/h 12.9 mph /  20.8 km/h 95 % 0.0 in /  0 mm
Meteo18
Compliments of Weather Underground - 4 mb

Script developed by  Jim McMurry - jmcmurry@mwt.net Adapted for the template by  Wim van der Kuil - Leuven-Template.eu

You find our weather info also at:

European Weather Network

Weather Underground

Equipment we use:

Weather-station
Davis Vue

Weather-program
Meteobridge

Weather-server
Raspberry PI 2 B+

Provider
1 and 1

Davis Vue

Meteobridge

Raspberry PI 2 B+

1 and 1